Carsonville, Michigan
Current Conditions -  °F | °C
As of 12:55 AM on Friday 28 Nov 2014 (Local Time) from KBAX Reporting Station
Overcast Overcast  
Wind Chill: 10°   Ceiling: 2800
Heat Index: 20°   Visibility: 10mi
Dew Point: 12°   Wind: 8mph
Humidity: 74%   Direction: 300°WNW
Pressure: 30.27"   Gusts: NA
Location:  43.43°N, 82.67°W
Report Text: KBAX 280555Z AUTO 30007KT 10SM OVC028 M07/M11 A3027 RMK AO2 T10691109 11043 21069 410101069
Loading
Personal Weather Stations






























Interactive Weather Map New forecast layout! Learn more

10-Day Weather Forecast

Advertisements
Track Severe Weather on mobile